Impacts TAF Board INFO
FOR SITUATIONAL AWARENESS. NOT TO BE USED FOR FLIGHT PLANNING PURPOSES.
IDs:

KPDX - Portland Intl Arpt, OR, US

Issued at 0852 UTC 20 Jan 2018
Updated at 0918 UTC 20 Jan 2018
Potential Impact None Slight Moderate High
Time0853Z 20/10Z 20/11Z 20/12Z 20/13Z 20/14Z 20/15Z 20/16Z 20/17Z 20/18Z 20/19Z 20/20Z 20/21Z 20/22Z>>
Type OBS PRVL PRVL PRVL PRVL PRVL PRVL PRVL PRVL PRVL PRVL PRVL PRVL PRVL
VIS 10 >6 >6 >6 >6 >6 >6 >6 >6 >6 >6 >6 >6 >6
CIG 70 45 45 45 45 45 25 25 25 25 25 25 25 50
Cover OVC OVC OVC OVC OVC OVC BKN BKN BKN BKN BKN BKN BKN OVC
FltCat VFR VFR VFR VFR VFR VFR MVFR MVFR MVFR MVFR MVFR MVFR MVFR VFR
WX -- -SHRA -SHRA -SHRA -SHRA -SHRA VCSH VCSH VCSH VCSH VCSH VCSH VCSH -RA
WDir 180 190 190 190 190 190 160 160 160 160 160 160 160 170
WSpd 7 5 5 5 5 5 7 7 7 7 7 7 7 12
WGst -- -- -- -- -- -- -- -- -- -- -- -- -- --

Raw TAF
KPDX 200852Z 2009/2106 18008KT P6SM -SHRA SCT015 BKN035 OVC070
  FM201000 19005KT P6SM -SHRA SCT025 OVC045
  FM201500 16007KT P6SM VCSH BKN025
  FM202200 17012KT P6SM -RA OVC050


Raw METAR
KPDX 200853Z 18007KT 10SM SCT017 OVC070 07/04 A3007 RMK AO2 RAB05E18 SLP181 P0000 60000 T00670044 51009
KPDX 200753Z 19010KT 10SM SCT015 BKN034 OVC070 07/04 A3007 RMK AO2 SLP180 T00670044 400940044
KPDX 200653Z 20011KT 10SM SCT018 BKN040 OVC090 07/05 A3006 RMK AO2 RAE12B33E51 SLP177 P0000 T00670050

METAR Board
Radar Display
Forecast Discussion

FOR SITUATIONAL AWARENESS. NOT TO BE USED FOR FLIGHT PLANNING PURPOSES.